Decoded Metar for K2V5 ( in ) (IATA:) | Meteo·Mobile Aviation Weather
aviador You're here:

K2V5 Decoded Metar

in
Report Time2019-02-16 07:35:00
UTC Time2019-02-16 07:48:23
Flight Rules ifr IFR
Wind110° at 04 kt
W.Rank110° ranks 20
Current wind is below 110° avg. (7.5)
Visibility9999 m
Phenomena:N/A
Clouds:Broken 008 Hf
Expected CloudBase > 400 ft AGL from Temp-Dew spread
Ceiling800 ft
Temp-10°C
Dew Point-11°C (92% RH)
AAT-14.6°C
QNH1009 hPa
Raw Report
K2V5 160735Z AUTO 11004KT 10SM BKN008 M10/M11 A2981 RMK AO2=

Extra information for K2V5:More info

Social comments